sensor_id;sensor_type;location;lat;lon;timestamp;temperature;humidity
13754;DHT22;6948;51.216;6.778;2023-06-04T00:01:59;16.60;99.90
13754;DHT22;6948;51.216;6.778;2023-06-04T00:04:25;16.60;99.90
13754;DHT22;6948;51.216;6.778;2023-06-04T00:06:51;16.60;99.90
13754;DHT22;6948;51.216;6.778;2023-06-04T00:09:18;16.60;99.90
13754;DHT22;6948;51.216;6.778;2023-06-04T00:11:43;16.60;99.90
13754;DHT22;6948;51.216;6.778;2023-06-04T00:14:12;16.60;99.90
13754;DHT22;6948;51.216;6.778;2023-06-04T00:16:38;16.60;99.90
13754;DHT22;6948;51.216;6.778;2023-06-04T00:19:03;16.50;99.90
13754;DHT22;6948;51.216;6.778;2023-06-04T00:21:29;16.50;99.90
13754;DHT22;6948;51.216;6.778;2023-06-04T00:23:55;16.40;99.90
13754;DHT22;6948;51.216;6.778;2023-06-04T00:26:20;16.40;99.90
13754;DHT22;6948;51.216;6.778;2023-06-04T00:28:49;16.40;99.90
13754;DHT22;6948;51.216;6.778;2023-06-04T00:31:15;16.40;99.90
13754;DHT22;6948;51.216;6.778;2023-06-04T00:33:41;16.30;99.90
13754;DHT22;6948;51.216;6.778;2023-06-04T00:36:07;16.40;99.90
13754;DHT22;6948;51.216;6.778;2023-06-04T00:38:33;16.30;99.90
13754;DHT22;6948;51.216;6.778;2023-06-04T00:40:58;16.30;99.90
13754;DHT22;6948;51.216;6.778;2023-06-04T00:43:24;16.30;99.90
13754;DHT22;6948;51.216;6.778;2023-06-04T00:45:53;16.40;99.90
13754;DHT22;6948;51.216;6.778;2023-06-04T00:48:19;16.30;99.90
13754;DHT22;6948;51.216;6.778;2023-06-04T00:50:46;16.20;99.90
13754;DHT22;6948;51.216;6.778;2023-06-04T00:53:12;16.20;99.90
13754;DHT22;6948;51.216;6.778;2023-06-04T00:55:38;16.00;99.90
13754;DHT22;6948;51.216;6.778;2023-06-04T00:58:04;16.10;99.90
13754;DHT22;6948;51.216;6.778;2023-06-04T01:00:30;16.00;99.90
13754;DHT22;6948;51.216;6.778;2023-06-04T01:02:58;15.90;99.90
13754;DHT22;6948;51.216;6.778;2023-06-04T01:05:36;15.80;99.90
13754;DHT22;6948;51.216;6.778;2023-06-04T01:08:04;15.70;99.90
13754;DHT22;6948;51.216;6.778;2023-06-04T01:10:34;15.50;99.90
13754;DHT22;6948;51.216;6.778;2023-06-04T01:13:00;15.50;99.90
13754;DHT22;6948;51.216;6.778;2023-06-04T01:15:26;15.50;99.90
13754;DHT22;6948;51.216;6.778;2023-06-04T01:17:57;15.50;99.90
13754;DHT22;6948;51.216;6.778;2023-06-04T01:25:51;15.50;99.90
13754;DHT22;6948;51.216;6.778;2023-06-04T01:28:17;15.20;99.90
13754;DHT22;6948;51.216;6.778;2023-06-04T01:30:46;15.20;99.90
13754;DHT22;6948;51.216;6.778;2023-06-04T01:33:17;15.10;99.90
13754;DHT22;6948;51.216;6.778;2023-06-04T01:35:43;15.10;99.90
13754;DHT22;6948;51.216;6.778;2023-06-04T01:38:09;15.10;99.90
13754;DHT22;6948;51.216;6.778;2023-06-04T01:40:35;15.10;99.90
13754;DHT22;6948;51.216;6.778;2023-06-04T01:43:01;15.00;99.90
13754;DHT22;6948;51.216;6.778;2023-06-04T01:45:28;15.00;99.90
13754;DHT22;6948;51.216;6.778;2023-06-04T01:47:54;15.00;99.90
13754;DHT22;6948;51.216;6.778;2023-06-04T01:50:20;15.00;99.90
13754;DHT22;6948;51.216;6.778;2023-06-04T01:52:46;15.00;99.90
13754;DHT22;6948;51.216;6.778;2023-06-04T01:55:14;14.90;99.90
13754;DHT22;6948;51.216;6.778;2023-06-04T01:57:42;14.80;99.90
13754;DHT22;6948;51.216;6.778;2023-06-04T02:00:09;14.80;99.90
13754;DHT22;6948;51.216;6.778;2023-06-04T02:02:36;14.80;99.90
13754;DHT22;6948;51.216;6.778;2023-06-04T02:05:04;14.80;99.90
13754;DHT22;6948;51.216;6.778;2023-06-04T02:07:33;14.80;99.90
13754;DHT22;6948;51.216;6.778;2023-06-04T02:10:00;14.80;99.90
13754;DHT22;6948;51.216;6.778;2023-06-04T02:12:25;14.90;99.90
13754;DHT22;6948;51.216;6.778;2023-06-04T02:14:51;14.90;99.90
13754;DHT22;6948;51.216;6.778;2023-06-04T02:17:16;14.90;99.90
13754;DHT22;6948;51.216;6.778;2023-06-04T02:19:43;14.90;99.90
13754;DHT22;6948;51.216;6.778;2023-06-04T02:22:12;14.90;99.90
13754;DHT22;6948;51.216;6.778;2023-06-04T02:24:38;14.90;99.90
13754;DHT22;6948;51.216;6.778;2023-06-04T02:27:08;14.80;99.90
13754;DHT22;6948;51.216;6.778;2023-06-04T02:29:34;14.80;99.90
13754;DHT22;6948;51.216;6.778;2023-06-04T02:32:01;14.80;99.90
13754;DHT22;6948;51.216;6.778;2023-06-04T02:34:26;14.80;99.90
13754;DHT22;6948;51.216;6.778;2023-06-04T02:36:55;14.90;99.90
13754;DHT22;6948;51.216;6.778;2023-06-04T02:39:20;14.90;99.90
13754;DHT22;6948;51.216;6.778;2023-06-04T02:41:46;15.00;99.90
13754;DHT22;6948;51.216;6.778;2023-06-04T02:44:12;15.00;99.90
13754;DHT22;6948;51.216;6.778;2023-06-04T02:46:38;15.00;99.90
13754;DHT22;6948;51.216;6.778;2023-06-04T02:49:04;15.00;99.90
13754;DHT22;6948;51.216;6.778;2023-06-04T02:51:32;15.00;99.90
13754;DHT22;6948;51.216;6.778;2023-06-04T02:53:58;15.00;99.90
13754;DHT22;6948;51.216;6.778;2023-06-04T02:56:24;15.00;99.90
13754;DHT22;6948;51.216;6.778;2023-06-04T02:58:52;14.90;99.90
13754;DHT22;6948;51.216;6.778;2023-06-04T03:01:21;15.00;99.90
13754;DHT22;6948;51.216;6.778;2023-06-04T03:03:47;14.90;99.90
13754;DHT22;6948;51.216;6.778;2023-06-04T03:06:13;14.90;99.90
13754;DHT22;6948;51.216;6.778;2023-06-04T03:08:40;15.00;99.90
13754;DHT22;6948;51.216;6.778;2023-06-04T03:11:06;15.00;99.90
13754;DHT22;6948;51.216;6.778;2023-06-04T03:13:32;15.00;99.90
13754;DHT22;6948;51.216;6.778;2023-06-04T03:15:57;15.00;99.90
13754;DHT22;6948;51.216;6.778;2023-06-04T03:18:26;14.90;99.90
13754;DHT22;6948;51.216;6.778;2023-06-04T03:20:52;14.90;99.90
13754;DHT22;6948;51.216;6.778;2023-06-04T03:23:19;14.90;99.90
13754;DHT22;6948;51.216;6.778;2023-06-04T03:25:44;14.90;99.90
13754;DHT22;6948;51.216;6.778;2023-06-04T03:28:10;14.90;99.90
13754;DHT22;6948;51.216;6.778;2023-06-04T03:30:36;15.00;99.90
13754;DHT22;6948;51.216;6.778;2023-06-04T03:33:01;15.00;99.90
13754;DHT22;6948;51.216;6.778;2023-06-04T03:35:28;14.90;99.90
13754;DHT22;6948;51.216;6.778;2023-06-04T03:37:53;14.80;99.90
13754;DHT22;6948;51.216;6.778;2023-06-04T03:40:19;14.80;99.90
13754;DHT22;6948;51.216;6.778;2023-06-04T03:42:45;14.70;99.90
13754;DHT22;6948;51.216;6.778;2023-06-04T03:45:10;14.80;99.90
13754;DHT22;6948;51.216;6.778;2023-06-04T03:47:37;14.80;99.90
13754;DHT22;6948;51.216;6.778;2023-06-04T03:50:04;14.80;99.90
13754;DHT22;6948;51.216;6.778;2023-06-04T03:52:29;14.80;99.90
13754;DHT22;6948;51.216;6.778;2023-06-04T03:54:55;14.80;99.90
13754;DHT22;6948;51.216;6.778;2023-06-04T03:57:21;14.70;99.90
13754;DHT22;6948;51.216;6.778;2023-06-04T03:59:47;14.80;99.90
13754;DHT22;6948;51.216;6.778;2023-06-04T04:02:12;14.90;99.90
13754;DHT22;6948;51.216;6.778;2023-06-04T04:04:38;14.80;99.90
13754;DHT22;6948;51.216;6.778;2023-06-04T04:07:03;14.90;99.90
13754;DHT22;6948;51.216;6.778;2023-06-04T04:09:29;14.80;99.90
13754;DHT22;6948;51.216;6.778;2023-06-04T04:11:55;14.80;99.90
13754;DHT22;6948;51.216;6.778;2023-06-04T04:14:20;14.60;99.90
13754;DHT22;6948;51.216;6.778;2023-06-04T04:16:46;14.60;99.90
13754;DHT22;6948;51.216;6.778;2023-06-04T04:19:12;14.70;99.90
13754;DHT22;6948;51.216;6.778;2023-06-04T04:21:38;14.60;99.90
13754;DHT22;6948;51.216;6.778;2023-06-04T04:24:04;14.50;99.90
13754;DHT22;6948;51.216;6.778;2023-06-04T04:26:30;14.50;99.90
13754;DHT22;6948;51.216;6.778;2023-06-04T04:28:56;14.60;99.90
13754;DHT22;6948;51.216;6.778;2023-06-04T04:31:24;14.80;99.90
13754;DHT22;6948;51.216;6.778;2023-06-04T04:33:50;14.90;99.90
13754;DHT22;6948;51.216;6.778;2023-06-04T04:36:17;14.90;99.90
13754;DHT22;6948;51.216;6.778;2023-06-04T04:38:44;14.90;99.90
13754;DHT22;6948;51.216;6.778;2023-06-04T04:41:11;15.00;99.90
13754;DHT22;6948;51.216;6.778;2023-06-04T04:43:38;15.10;99.90
13754;DHT22;6948;51.216;6.778;2023-06-04T04:46:05;15.00;99.90
13754;DHT22;6948;51.216;6.778;2023-06-04T04:48:31;14.90;99.90
13754;DHT22;6948;51.216;6.778;2023-06-04T04:50:57;15.10;99.90
13754;DHT22;6948;51.216;6.778;2023-06-04T04:53:23;15.50;99.90
13754;DHT22;6948;51.216;6.778;2023-06-04T04:55:49;16.00;99.90
13754;DHT22;6948;51.216;6.778;2023-06-04T04:58:17;16.10;99.90
13754;DHT22;6948;51.216;6.778;2023-06-04T05:00:42;15.90;99.90
13754;DHT22;6948;51.216;6.778;2023-06-04T05:03:08;15.90;99.90
13754;DHT22;6948;51.216;6.778;2023-06-04T05:05:34;16.00;99.90
13754;DHT22;6948;51.216;6.778;2023-06-04T05:07:59;15.90;99.90
13754;DHT22;6948;51.216;6.778;2023-06-04T05:10:25;16.00;99.90
13754;DHT22;6948;51.216;6.778;2023-06-04T05:12:53;15.80;99.90
13754;DHT22;6948;51.216;6.778;2023-06-04T05:15:19;15.70;99.90
13754;DHT22;6948;51.216;6.778;2023-06-04T05:17:45;15.70;99.90
13754;DHT22;6948;51.216;6.778;2023-06-04T05:20:12;16.00;99.90
13754;DHT22;6948;51.216;6.778;2023-06-04T05:22:39;16.00;99.90
13754;DHT22;6948;51.216;6.778;2023-06-04T05:25:04;16.40;99.90
13754;DHT22;6948;51.216;6.778;2023-06-04T05:27:31;16.50;99.90
13754;DHT22;6948;51.216;6.778;2023-06-04T05:29:58;16.40;99.90
13754;DHT22;6948;51.216;6.778;2023-06-04T05:32:23;16.40;99.90
13754;DHT22;6948;51.216;6.778;2023-06-04T05:34:54;16.40;99.90
13754;DHT22;6948;51.216;6.778;2023-06-04T05:37:23;16.30;99.90
13754;DHT22;6948;51.216;6.778;2023-06-04T05:39:49;16.50;99.90
13754;DHT22;6948;51.216;6.778;2023-06-04T05:42:15;16.80;99.90
13754;DHT22;6948;51.216;6.778;2023-06-04T05:44:41;16.90;99.90
13754;DHT22;6948;51.216;6.778;2023-06-04T05:47:06;17.00;99.90
13754;DHT22;6948;51.216;6.778;2023-06-04T05:49:34;17.20;99.90
13754;DHT22;6948;51.216;6.778;2023-06-04T05:52:00;17.20;99.90
13754;DHT22;6948;51.216;6.778;2023-06-04T05:54:26;17.30;99.90
13754;DHT22;6948;51.216;6.778;2023-06-04T05:56:52;17.50;99.90
13754;DHT22;6948;51.216;6.778;2023-06-04T05:59:18;17.70;99.90
13754;DHT22;6948;51.216;6.778;2023-06-04T06:01:43;17.80;99.90
13754;DHT22;6948;51.216;6.778;2023-06-04T06:04:09;17.90;99.90
13754;DHT22;6948;51.216;6.778;2023-06-04T06:06:36;18.20;99.90
13754;DHT22;6948;51.216;6.778;2023-06-04T06:09:01;18.50;99.90
13754;DHT22;6948;51.216;6.778;2023-06-04T06:11:27;18.70;99.90
13754;DHT22;6948;51.216;6.778;2023-06-04T06:13:53;18.70;99.90
13754;DHT22;6948;51.216;6.778;2023-06-04T06:16:19;18.80;99.90
13754;DHT22;6948;51.216;6.778;2023-06-04T06:18:44;18.80;99.90
13754;DHT22;6948;51.216;6.778;2023-06-04T06:21:10;19.00;99.90
13754;DHT22;6948;51.216;6.778;2023-06-04T06:23:36;19.00;99.90
13754;DHT22;6948;51.216;6.778;2023-06-04T06:26:02;19.00;99.90
13754;DHT22;6948;51.216;6.778;2023-06-04T06:28:28;19.10;99.90
13754;DHT22;6948;51.216;6.778;2023-06-04T06:30:54;18.90;99.90
13754;DHT22;6948;51.216;6.778;2023-06-04T06:33:20;18.80;99.90
13754;DHT22;6948;51.216;6.778;2023-06-04T06:35:47;19.10;99.90
13754;DHT22;6948;51.216;6.778;2023-06-04T06:38:13;19.20;99.90
13754;DHT22;6948;51.216;6.778;2023-06-04T06:40:40;19.30;99.90
13754;DHT22;6948;51.216;6.778;2023-06-04T06:43:06;19.40;99.90
13754;DHT22;6948;51.216;6.778;2023-06-04T06:45:31;19.30;99.90
13754;DHT22;6948;51.216;6.778;2023-06-04T06:47:57;19.60;99.90
13754;DHT22;6948;51.216;6.778;2023-06-04T06:50:23;19.60;99.90
13754;DHT22;6948;51.216;6.778;2023-06-04T06:52:49;19.60;99.90
13754;DHT22;6948;51.216;6.778;2023-06-04T06:55:15;19.80;99.90
13754;DHT22;6948;51.216;6.778;2023-06-04T06:57:40;20.00;99.90
13754;DHT22;6948;51.216;6.778;2023-06-04T07:00:07;19.90;99.90
13754;DHT22;6948;51.216;6.778;2023-06-04T07:02:33;19.90;99.90
13754;DHT22;6948;51.216;6.778;2023-06-04T07:04:58;20.10;99.90
13754;DHT22;6948;51.216;6.778;2023-06-04T07:07:24;20.00;99.90
13754;DHT22;6948;51.216;6.778;2023-06-04T07:09:50;20.30;99.90
13754;DHT22;6948;51.216;6.778;2023-06-04T07:12:16;20.00;99.90
13754;DHT22;6948;51.216;6.778;2023-06-04T07:14:42;19.90;99.90
13754;DHT22;6948;51.216;6.778;2023-06-04T07:17:08;19.80;99.90
13754;DHT22;6948;51.216;6.778;2023-06-04T07:19:33;19.80;99.90
13754;DHT22;6948;51.216;6.778;2023-06-04T07:21:59;20.20;99.90
13754;DHT22;6948;51.216;6.778;2023-06-04T07:24:25;20.40;99.90
13754;DHT22;6948;51.216;6.778;2023-06-04T07:26:50;20.50;99.70
13754;DHT22;6948;51.216;6.778;2023-06-04T07:29:16;20.40;99.30
13754;DHT22;6948;51.216;6.778;2023-06-04T07:31:42;20.40;99.60
13754;DHT22;6948;51.216;6.778;2023-06-04T07:34:07;20.50;99.30
13754;DHT22;6948;51.216;6.778;2023-06-04T07:36:33;20.70;98.80
13754;DHT22;6948;51.216;6.778;2023-06-04T07:38:59;20.80;98.90
13754;DHT22;6948;51.216;6.778;2023-06-04T07:41:25;20.80;99.00
13754;DHT22;6948;51.216;6.778;2023-06-04T07:43:52;20.90;99.20
13754;DHT22;6948;51.216;6.778;2023-06-04T07:46:17;21.00;98.70
13754;DHT22;6948;51.216;6.778;2023-06-04T07:48:45;21.10;97.90
13754;DHT22;6948;51.216;6.778;2023-06-04T07:51:10;21.30;96.90
13754;DHT22;6948;51.216;6.778;2023-06-04T07:53:37;21.30;96.30
13754;DHT22;6948;51.216;6.778;2023-06-04T07:56:03;21.10;95.90
13754;DHT22;6948;51.216;6.778;2023-06-04T07:58:29;21.00;97.20
13754;DHT22;6948;51.216;6.778;2023-06-04T08:00:55;21.00;97.30
13754;DHT22;6948;51.216;6.778;2023-06-04T08:03:21;21.00;97.90
13754;DHT22;6948;51.216;6.778;2023-06-04T08:05:46;21.00;99.90
13754;DHT22;6948;51.216;6.778;2023-06-04T08:08:12;21.10;98.40
13754;DHT22;6948;51.216;6.778;2023-06-04T08:10:39;21.30;99.90
13754;DHT22;6948;51.216;6.778;2023-06-04T08:13:05;21.20;97.70
13754;DHT22;6948;51.216;6.778;2023-06-04T08:15:31;21.30;96.30
13754;DHT22;6948;51.216;6.778;2023-06-04T08:17:56;21.20;96.00
13754;DHT22;6948;51.216;6.778;2023-06-04T08:20:23;21.20;95.70
13754;DHT22;6948;51.216;6.778;2023-06-04T08:22:49;21.10;96.40
13754;DHT22;6948;51.216;6.778;2023-06-04T08:25:14;21.10;96.70
13754;DHT22;6948;51.216;6.778;2023-06-04T08:27:41;21.10;97.50
13754;DHT22;6948;51.216;6.778;2023-06-04T08:30:08;21.30;96.50
13754;DHT22;6948;51.216;6.778;2023-06-04T08:32:34;21.20;94.80
13754;DHT22;6948;51.216;6.778;2023-06-04T08:35:00;21.20;95.40
13754;DHT22;6948;51.216;6.778;2023-06-04T08:37:26;21.20;94.50
13754;DHT22;6948;51.216;6.778;2023-06-04T08:39:52;21.30;95.00
13754;DHT22;6948;51.216;6.778;2023-06-04T08:42:29;21.20;94.30
13754;DHT22;6948;51.216;6.778;2023-06-04T08:44:57;21.10;95.00
13754;DHT22;6948;51.216;6.778;2023-06-04T08:47:24;21.20;93.90
13754;DHT22;6948;51.216;6.778;2023-06-04T08:49:52;21.10;96.50
13754;DHT22;6948;51.216;6.778;2023-06-04T08:52:20;21.10;95.60
13754;DHT22;6948;51.216;6.778;2023-06-04T08:54:49;21.40;94.10
13754;DHT22;6948;51.216;6.778;2023-06-04T08:57:18;21.60;93.00
13754;DHT22;6948;51.216;6.778;2023-06-04T08:59:46;21.60;93.90
13754;DHT22;6948;51.216;6.778;2023-06-04T09:02:13;21.50;93.40
13754;DHT22;6948;51.216;6.778;2023-06-04T09:04:40;21.70;90.70
13754;DHT22;6948;51.216;6.778;2023-06-04T09:07:06;21.80;91.00
13754;DHT22;6948;51.216;6.778;2023-06-04T09:09:38;21.90;89.80
13754;DHT22;6948;51.216;6.778;2023-06-04T09:12:08;21.80;90.70
13754;DHT22;6948;51.216;6.778;2023-06-04T09:14:34;21.70;91.60
13754;DHT22;6948;51.216;6.778;2023-06-04T09:17:00;21.70;90.30
13754;DHT22;6948;51.216;6.778;2023-06-04T09:19:25;21.60;90.60
13754;DHT22;6948;51.216;6.778;2023-06-04T09:21:53;21.70;90.70
13754;DHT22;6948;51.216;6.778;2023-06-04T09:24:20;21.70;90.50
13754;DHT22;6948;51.216;6.778;2023-06-04T09:26:46;21.70;90.30
13754;DHT22;6948;51.216;6.778;2023-06-04T09:29:13;21.70;91.50
13754;DHT22;6948;51.216;6.778;2023-06-04T09:31:39;21.70;90.40
13754;DHT22;6948;51.216;6.778;2023-06-04T09:34:06;21.80;90.60
13754;DHT22;6948;51.216;6.778;2023-06-04T09:36:33;21.90;91.40
13754;DHT22;6948;51.216;6.778;2023-06-04T09:38:59;22.00;91.90
13754;DHT22;6948;51.216;6.778;2023-06-04T09:41:25;22.10;90.80
13754;DHT22;6948;51.216;6.778;2023-06-04T09:43:59;22.20;94.10
13754;DHT22;6948;51.216;6.778;2023-06-04T09:46:28;22.30;93.60
13754;DHT22;6948;51.216;6.778;2023-06-04T09:49:02;22.50;91.10
13754;DHT22;6948;51.216;6.778;2023-06-04T09:51:28;22.50;92.00
13754;DHT22;6948;51.216;6.778;2023-06-04T09:53:55;22.40;90.90
13754;DHT22;6948;51.216;6.778;2023-06-04T09:56:22;22.20;91.30
13754;DHT22;6948;51.216;6.778;2023-06-04T09:58:49;22.20;90.20
13754;DHT22;6948;51.216;6.778;2023-06-04T10:01:15;22.30;86.80
13754;DHT22;6948;51.216;6.778;2023-06-04T10:03:46;22.30;85.50
13754;DHT22;6948;51.216;6.778;2023-06-04T10:06:14;22.30;86.30
13754;DHT22;6948;51.216;6.778;2023-06-04T10:08:42;22.30;86.20
13754;DHT22;6948;51.216;6.778;2023-06-04T10:11:09;22.30;85.40
13754;DHT22;6948;51.216;6.778;2023-06-04T10:13:44;22.20;85.20
13754;DHT22;6948;51.216;6.778;2023-06-04T10:16:11;22.10;86.60
13754;DHT22;6948;51.216;6.778;2023-06-04T10:18:38;22.10;86.20
13754;DHT22;6948;51.216;6.778;2023-06-04T10:21:04;22.10;87.00
13754;DHT22;6948;51.216;6.778;2023-06-04T10:23:31;22.10;87.20
13754;DHT22;6948;51.216;6.778;2023-06-04T10:25:57;22.00;88.50
13754;DHT22;6948;51.216;6.778;2023-06-04T10:28:23;22.10;90.10
13754;DHT22;6948;51.216;6.778;2023-06-04T10:30:50;22.20;88.40
13754;DHT22;6948;51.216;6.778;2023-06-04T10:33:18;22.40;87.40
13754;DHT22;6948;51.216;6.778;2023-06-04T10:35:45;22.50;85.20
13754;DHT22;6948;51.216;6.778;2023-06-04T10:38:12;22.60;85.40
13754;DHT22;6948;51.216;6.778;2023-06-04T10:40:42;22.60;83.70
13754;DHT22;6948;51.216;6.778;2023-06-04T10:43:09;22.60;83.40
13754;DHT22;6948;51.216;6.778;2023-06-04T10:45:35;22.50;84.30
13754;DHT22;6948;51.216;6.778;2023-06-04T10:48:02;22.50;84.10
13754;DHT22;6948;51.216;6.778;2023-06-04T10:50:29;22.40;83.80
13754;DHT22;6948;51.216;6.778;2023-06-04T10:52:55;22.40;84.00
13754;DHT22;6948;51.216;6.778;2023-06-04T10:55:23;22.60;82.80
13754;DHT22;6948;51.216;6.778;2023-06-04T10:57:57;22.50;83.70
13754;DHT22;6948;51.216;6.778;2023-06-04T11:00:44;22.40;83.90
13754;DHT22;6948;51.216;6.778;2023-06-04T11:03:13;22.50;84.20
13754;DHT22;6948;51.216;6.778;2023-06-04T11:05:41;22.60;83.50
13754;DHT22;6948;51.216;6.778;2023-06-04T11:08:08;22.70;82.80
13754;DHT22;6948;51.216;6.778;2023-06-04T11:10:37;22.70;82.90
13754;DHT22;6948;51.216;6.778;2023-06-04T11:13:04;22.70;83.70
13754;DHT22;6948;51.216;6.778;2023-06-04T11:15:46;22.80;83.80
13754;DHT22;6948;51.216;6.778;2023-06-04T11:18:19;22.80;82.30
13754;DHT22;6948;51.216;6.778;2023-06-04T11:20:46;22.70;84.70
13754;DHT22;6948;51.216;6.778;2023-06-04T11:23:13;22.70;85.60
13754;DHT22;6948;51.216;6.778;2023-06-04T11:25:39;22.90;85.20
13754;DHT22;6948;51.216;6.778;2023-06-04T11:28:05;22.90;81.70
13754;DHT22;6948;51.216;6.778;2023-06-04T11:30:31;22.70;83.30
13754;DHT22;6948;51.216;6.778;2023-06-04T11:33:05;22.70;87.20
13754;DHT22;6948;51.216;6.778;2023-06-04T11:35:38;22.70;83.30
13754;DHT22;6948;51.216;6.778;2023-06-04T11:38:05;22.60;83.10
13754;DHT22;6948;51.216;6.778;2023-06-04T11:40:30;22.70;84.40
13754;DHT22;6948;51.216;6.778;2023-06-04T11:42:56;22.60;83.70
13754;DHT22;6948;51.216;6.778;2023-06-04T11:45:23;22.60;84.20
13754;DHT22;6948;51.216;6.778;2023-06-04T11:47:52;22.60;83.00
13754;DHT22;6948;51.216;6.778;2023-06-04T11:50:19;22.70;82.80
13754;DHT22;6948;51.216;6.778;2023-06-04T11:52:45;22.80;82.60
13754;DHT22;6948;51.216;6.778;2023-06-04T11:55:12;22.90;81.30
13754;DHT22;6948;51.216;6.778;2023-06-04T11:57:38;22.90;81.00
13754;DHT22;6948;51.216;6.778;2023-06-04T12:00:06;22.70;79.40
13754;DHT22;6948;51.216;6.778;2023-06-04T12:02:35;22.80;78.70
13754;DHT22;6948;51.216;6.778;2023-06-04T12:05:18;22.80;78.80
13754;DHT22;6948;51.216;6.778;2023-06-04T12:07:45;22.70;79.60
13754;DHT22;6948;51.216;6.778;2023-06-04T12:10:11;22.70;80.30
13754;DHT22;6948;51.216;6.778;2023-06-04T12:12:37;22.90;77.00
13754;DHT22;6948;51.216;6.778;2023-06-04T12:15:03;23.10;75.60
13754;DHT22;6948;51.216;6.778;2023-06-04T12:17:31;22.90;74.90
13754;DHT22;6948;51.216;6.778;2023-06-04T12:19:57;23.00;74.30
13754;DHT22;6948;51.216;6.778;2023-06-04T12:22:24;23.10;74.20
13754;DHT22;6948;51.216;6.778;2023-06-04T12:24:54;22.90;73.70
13754;DHT22;6948;51.216;6.778;2023-06-04T12:27:22;23.10;71.80
13754;DHT22;6948;51.216;6.778;2023-06-04T12:30:05;23.30;70.40
13754;DHT22;6948;51.216;6.778;2023-06-04T12:32:35;23.30;67.40
13754;DHT22;6948;51.216;6.778;2023-06-04T12:35:01;23.20;67.50
13754;DHT22;6948;51.216;6.778;2023-06-04T12:37:27;23.20;68.10
13754;DHT22;6948;51.216;6.778;2023-06-04T12:39:54;23.20;64.80
13754;DHT22;6948;51.216;6.778;2023-06-04T12:42:20;23.20;65.80
13754;DHT22;6948;51.216;6.778;2023-06-04T12:44:46;23.30;65.70
13754;DHT22;6948;51.216;6.778;2023-06-04T12:47:12;23.50;64.80
13754;DHT22;6948;51.216;6.778;2023-06-04T12:49:38;23.70;66.10
13754;DHT22;6948;51.216;6.778;2023-06-04T12:52:05;23.60;67.00
13754;DHT22;6948;51.216;6.778;2023-06-04T12:54:31;23.40;65.30
13754;DHT22;6948;51.216;6.778;2023-06-04T12:56:58;23.30;65.70
13754;DHT22;6948;51.216;6.778;2023-06-04T12:59:25;23.30;65.80
13754;DHT22;6948;51.216;6.778;2023-06-04T13:01:52;23.40;64.90
13754;DHT22;6948;51.216;6.778;2023-06-04T13:04:18;23.50;63.70
13754;DHT22;6948;51.216;6.778;2023-06-04T13:06:43;23.50;64.10
13754;DHT22;6948;51.216;6.778;2023-06-04T13:09:11;23.60;63.40
13754;DHT22;6948;51.216;6.778;2023-06-04T13:11:41;23.50;63.50
13754;DHT22;6948;51.216;6.778;2023-06-04T13:14:07;23.60;63.70
13754;DHT22;6948;51.216;6.778;2023-06-04T13:16:33;23.60;63.80
13754;DHT22;6948;51.216;6.778;2023-06-04T13:18:59;23.60;62.20
13754;DHT22;6948;51.216;6.778;2023-06-04T13:21:24;23.70;64.10
13754;DHT22;6948;51.216;6.778;2023-06-04T13:23:50;23.70;62.90
13754;DHT22;6948;51.216;6.778;2023-06-04T13:26:17;23.60;62.60
13754;DHT22;6948;51.216;6.778;2023-06-04T13:28:43;23.70;62.20
13754;DHT22;6948;51.216;6.778;2023-06-04T13:31:08;23.80;61.20
13754;DHT22;6948;51.216;6.778;2023-06-04T13:33:34;23.80;59.20
13754;DHT22;6948;51.216;6.778;2023-06-04T13:36:02;23.90;59.90
13754;DHT22;6948;51.216;6.778;2023-06-04T13:38:28;23.90;59.90
13754;DHT22;6948;51.216;6.778;2023-06-04T13:40:54;23.90;61.20
13754;DHT22;6948;51.216;6.778;2023-06-04T13:43:20;24.10;62.50
13754;DHT22;6948;51.216;6.778;2023-06-04T13:45:46;24.10;64.20
13754;DHT22;6948;51.216;6.778;2023-06-04T13:48:12;24.10;64.00
13754;DHT22;6948;51.216;6.778;2023-06-04T13:50:38;24.00;65.20
13754;DHT22;6948;51.216;6.778;2023-06-04T13:53:04;24.00;63.70
13754;DHT22;6948;51.216;6.778;2023-06-04T13:55:30;23.90;64.30
13754;DHT22;6948;51.216;6.778;2023-06-04T13:57:55;23.80;62.00
13754;DHT22;6948;51.216;6.778;2023-06-04T14:00:21;23.80;62.90
13754;DHT22;6948;51.216;6.778;2023-06-04T14:02:48;23.80;64.30
13754;DHT22;6948;51.216;6.778;2023-06-04T14:05:14;23.90;63.40
13754;DHT22;6948;51.216;6.778;2023-06-04T14:07:42;24.00;62.90
13754;DHT22;6948;51.216;6.778;2023-06-04T14:10:09;24.00;62.60
13754;DHT22;6948;51.216;6.778;2023-06-04T14:12:36;24.00;63.40
13754;DHT22;6948;51.216;6.778;2023-06-04T14:15:02;24.10;65.20
13754;DHT22;6948;51.216;6.778;2023-06-04T14:17:28;24.10;65.00
13754;DHT22;6948;51.216;6.778;2023-06-04T14:19:53;24.10;66.20
13754;DHT22;6948;51.216;6.778;2023-06-04T14:22:19;24.20;66.80
13754;DHT22;6948;51.216;6.778;2023-06-04T14:24:45;24.20;67.20
13754;DHT22;6948;51.216;6.778;2023-06-04T14:27:10;24.10;65.30
13754;DHT22;6948;51.216;6.778;2023-06-04T14:29:36;24.00;65.30
13754;DHT22;6948;51.216;6.778;2023-06-04T14:32:03;24.00;65.40
13754;DHT22;6948;51.216;6.778;2023-06-04T14:34:29;23.90;65.50
13754;DHT22;6948;51.216;6.778;2023-06-04T14:36:55;23.90;65.50
13754;DHT22;6948;51.216;6.778;2023-06-04T14:39:23;23.90;65.40
13754;DHT22;6948;51.216;6.778;2023-06-04T14:41:48;23.90;66.20
13754;DHT22;6948;51.216;6.778;2023-06-04T14:44:14;24.10;66.80
13754;DHT22;6948;51.216;6.778;2023-06-04T14:46:40;24.20;66.00
13754;DHT22;6948;51.216;6.778;2023-06-04T14:49:06;24.20;65.20
13754;DHT22;6948;51.216;6.778;2023-06-04T14:51:31;24.10;64.90
13754;DHT22;6948;51.216;6.778;2023-06-04T14:53:57;24.10;65.40
13754;DHT22;6948;51.216;6.778;2023-06-04T14:56:22;24.10;66.10
13754;DHT22;6948;51.216;6.778;2023-06-04T14:58:48;24.20;66.10
13754;DHT22;6948;51.216;6.778;2023-06-04T15:01:14;24.10;66.40
13754;DHT22;6948;51.216;6.778;2023-06-04T15:03:40;24.10;66.10
13754;DHT22;6948;51.216;6.778;2023-06-04T15:06:05;24.10;65.60
13754;DHT22;6948;51.216;6.778;2023-06-04T15:08:31;24.10;65.40
13754;DHT22;6948;51.216;6.778;2023-06-04T15:10:57;24.20;65.80
13754;DHT22;6948;51.216;6.778;2023-06-04T15:13:22;24.10;66.10
13754;DHT22;6948;51.216;6.778;2023-06-04T15:15:48;24.00;65.90
13754;DHT22;6948;51.216;6.778;2023-06-04T15:18:14;24.00;66.30
13754;DHT22;6948;51.216;6.778;2023-06-04T15:20:40;24.00;66.20
13754;DHT22;6948;51.216;6.778;2023-06-04T15:23:05;24.10;66.30
13754;DHT22;6948;51.216;6.778;2023-06-04T15:25:31;24.10;66.20
13754;DHT22;6948;51.216;6.778;2023-06-04T15:27:58;24.10;66.00
13754;DHT22;6948;51.216;6.778;2023-06-04T15:30:23;24.00;66.00
13754;DHT22;6948;51.216;6.778;2023-06-04T15:32:49;24.10;64.80
13754;DHT22;6948;51.216;6.778;2023-06-04T15:35:15;24.10;64.90
13754;DHT22;6948;51.216;6.778;2023-06-04T15:37:41;24.30;65.10
13754;DHT22;6948;51.216;6.778;2023-06-04T15:40:07;24.40;65.90
13754;DHT22;6948;51.216;6.778;2023-06-04T15:42:34;24.50;66.80
13754;DHT22;6948;51.216;6.778;2023-06-04T15:45:00;24.40;66.70
13754;DHT22;6948;51.216;6.778;2023-06-04T15:47:26;24.40;66.00